Terminal Aerodrome Forecast
Issued by NWS Flagstaff, AZ

Home | Current Version | Previous Version | Text Only | Print | Product List | Glossary On
Versions: 1 2 3 4 5 6 7 8 9 10 11 12 13 14 15
000
FTUS45 KFGZ 060541
TAFFLG
TAF
KFLG 060541Z 0606/0706 VRB06KT P6SM SCT060 BKN110
      TEMPO 0606/0609 SHRA BKN050
     FM061800 23011KT P6SM SCT070 BKN110 PROB30 0619/0701 5SM TSRA
      BKN060CB
     FM070300 VRB03KT P6SM FEW070 SCT120=

USA.gov is the U.S. government's official web portal to all federal, state and local government web resources and services.